sensor_id;sensor_type;location;lat;lon;timestamp;P1;durP1;ratioP1;P2;durP2;ratioP2
62457;SDS011;48509;52.122;5.250;2024-01-11T00:00:20;27.9;;;17.91;;
62457;SDS011;48509;52.122;5.250;2024-01-11T00:01:56;26.4;;;17.7;;
62457;SDS011;48509;52.122;5.250;2024-01-11T00:03:32;28.1;;;18.11;;
62457;SDS011;48509;52.122;5.250;2024-01-11T00:06:45;23.0;;;16.8;;
62457;SDS011;48509;52.122;5.250;2024-01-11T00:08:21;24.8;;;16.2;;
62457;SDS011;48509;52.122;5.250;2024-01-11T00:09:57;27.5;;;17.2;;
62457;SDS011;48509;52.122;5.250;2024-01-11T00:13:09;22.9;;;16.3;;
62457;SDS011;48509;52.122;5.250;2024-01-11T00:14:45;26.3;;;17.41;;
62457;SDS011;48509;52.122;5.250;2024-01-11T00:16:21;27.5;;;18.0;;
62457;SDS011;48509;52.122;5.250;2024-01-11T00:17:57;27.7;;;17.8;;
62457;SDS011;48509;52.122;5.250;2024-01-11T00:21:10;29.7;;;18.3;;
62457;SDS011;48509;52.122;5.250;2024-01-11T00:22:46;31.0;;;18.0;;
62457;SDS011;48509;52.122;5.250;2024-01-11T00:24:22;24.7;;;17.41;;
62457;SDS011;48509;52.122;5.250;2024-01-11T00:27:34;27.1;;;17.0;;
62457;SDS011;48509;52.122;5.250;2024-01-11T00:29:10;24.1;;;16.61;;
62457;SDS011;48509;52.122;5.250;2024-01-11T00:30:46;27.7;;;17.41;;
62457;SDS011;48509;52.122;5.250;2024-01-11T00:33:59;26.8;;;17.3;;
62457;SDS011;48509;52.122;5.250;2024-01-11T00:35:35;27.9;;;18.41;;
62457;SDS011;48509;52.122;5.250;2024-01-11T00:37:11;29.2;;;17.91;;
62457;SDS011;48509;52.122;5.250;2024-01-11T00:40:23;27.5;;;18.61;;
62457;SDS011;48509;52.122;5.250;2024-01-11T00:41:59;28.2;;;18.0;;
62457;SDS011;48509;52.122;5.250;2024-01-11T00:43:35;30.3;;;18.2;;
62457;SDS011;48509;52.122;5.250;2024-01-11T00:45:11;32.6;;;17.91;;
62457;SDS011;48509;52.122;5.250;2024-01-11T00:48:23;29.7;;;18.2;;
62457;SDS011;48509;52.122;5.250;2024-01-11T00:49:59;31.4;;;18.91;;
62457;SDS011;48509;52.122;5.250;2024-01-11T00:51:35;29.4;;;18.11;;
62457;SDS011;48509;52.122;5.250;2024-01-11T00:54:48;27.9;;;19.11;;
62457;SDS011;48509;52.122;5.250;2024-01-11T00:56:24;28.0;;;17.8;;
62457;SDS011;48509;52.122;5.250;2024-01-11T00:58:00;31.5;;;18.0;;
62457;SDS011;48509;52.122;5.250;2024-01-11T01:01:12;29.4;;;18.11;;
62457;SDS011;48509;52.122;5.250;2024-01-11T01:02:48;28.9;;;18.0;;
62457;SDS011;48509;52.122;5.250;2024-01-11T01:04:24;30.6;;;18.7;;
62457;SDS011;48509;52.122;5.250;2024-01-11T01:07:36;26.5;;;17.91;;
62457;SDS011;48509;52.122;5.250;2024-01-11T01:09:12;26.5;;;17.91;;
62457;SDS011;48509;52.122;5.250;2024-01-11T01:10:49;35.0;;;19.91;;
62457;SDS011;48509;52.122;5.250;2024-01-11T01:12:25;28.3;;;18.3;;
62457;SDS011;48509;52.122;5.250;2024-01-11T01:15:37;26.8;;;18.2;;
62457;SDS011;48509;52.122;5.250;2024-01-11T01:17:13;36.0;;;19.2;;
62457;SDS011;48509;52.122;5.250;2024-01-11T01:18:49;29.5;;;19.3;;
62457;SDS011;48509;52.122;5.250;2024-01-11T01:22:01;29.4;;;19.2;;
62457;SDS011;48509;52.122;5.250;2024-01-11T01:23:37;28.7;;;19.41;;
62457;SDS011;48509;52.122;5.250;2024-01-11T01:25:13;27.1;;;18.0;;
62457;SDS011;48509;52.122;5.250;2024-01-11T01:28:26;30.9;;;18.91;;
62457;SDS011;48509;52.122;5.250;2024-01-11T01:30:02;27.5;;;18.41;;
62457;SDS011;48509;52.122;5.250;2024-01-11T01:31:39;28.0;;;19.7;;
62457;SDS011;48509;52.122;5.250;2024-01-11T01:34:51;32.8;;;19.91;;
62457;SDS011;48509;52.122;5.250;2024-01-11T01:36:27;37.21;;;20.3;;
62457;SDS011;48509;52.122;5.250;2024-01-11T01:38:03;32.6;;;20.41;;
62457;SDS011;48509;52.122;5.250;2024-01-11T01:39:39;34.5;;;19.61;;
62457;SDS011;48509;52.122;5.250;2024-01-11T01:42:57;33.6;;;20.41;;
62457;SDS011;48509;52.122;5.250;2024-01-11T01:44:33;33.6;;;20.41;;
62457;SDS011;48509;52.122;5.250;2024-01-11T01:46:10;33.1;;;21.3;;
62457;SDS011;48509;52.122;5.250;2024-01-11T01:49:23;29.7;;;19.41;;
62457;SDS011;48509;52.122;5.250;2024-01-11T01:51:00;30.9;;;19.7;;
62457;SDS011;48509;52.122;5.250;2024-01-11T01:52:38;30.3;;;19.91;;
62457;SDS011;48509;52.122;5.250;2024-01-11T01:54:18;30.2;;;19.91;;
62457;SDS011;48509;52.122;5.250;2024-01-11T01:57:33;30.4;;;20.41;;
62457;SDS011;48509;52.122;5.250;2024-01-11T01:59:10;34.6;;;21.8;;
62457;SDS011;48509;52.122;5.250;2024-01-11T02:00:48;34.21;;;22.0;;
62457;SDS011;48509;52.122;5.250;2024-01-11T02:04:04;32.5;;;20.7;;
62457;SDS011;48509;52.122;5.250;2024-01-11T02:07:16;32.6;;;21.6;;
62457;SDS011;48509;52.122;5.250;2024-01-11T02:08:53;29.8;;;20.3;;
62457;SDS011;48509;52.122;5.250;2024-01-11T02:12:08;30.3;;;20.6;;
62457;SDS011;48509;52.122;5.250;2024-01-11T02:13:45;30.9;;;20.0;;
62457;SDS011;48509;52.122;5.250;2024-01-11T02:15:21;34.5;;;20.9;;
62457;SDS011;48509;52.122;5.250;2024-01-11T02:18:33;33.0;;;20.5;;
62457;SDS011;48509;52.122;5.250;2024-01-11T02:20:11;36.1;;;22.9;;
62457;SDS011;48509;52.122;5.250;2024-01-11T02:21:48;31.0;;;20.7;;
62457;SDS011;48509;52.122;5.250;2024-01-11T02:23:29;31.5;;;21.9;;
62457;SDS011;48509;52.122;5.250;2024-01-11T02:26:57;30.9;;;21.8;;
62457;SDS011;48509;52.122;5.250;2024-01-11T02:28:34;34.31;;;22.2;;
62457;SDS011;48509;52.122;5.250;2024-01-11T02:30:10;42.8;;;23.5;;
62457;SDS011;48509;52.122;5.250;2024-01-11T02:33:23;33.1;;;21.8;;
62457;SDS011;48509;52.122;5.250;2024-01-11T02:34:59;35.81;;;22.2;;
62457;SDS011;48509;52.122;5.250;2024-01-11T02:36:38;41.0;;;24.6;;
62457;SDS011;48509;52.122;5.250;2024-01-11T02:38:15;39.5;;;24.2;;
62457;SDS011;48509;52.122;5.250;2024-01-11T02:41:29;39.9;;;24.8;;
62457;SDS011;48509;52.122;5.250;2024-01-11T02:43:07;35.1;;;23.7;;
62457;SDS011;48509;52.122;5.250;2024-01-11T02:44:44;39.6;;;24.5;;
62457;SDS011;48509;52.122;5.250;2024-01-11T02:47:56;40.1;;;25.8;;
62457;SDS011;48509;52.122;5.250;2024-01-11T02:49:32;39.31;;;24.7;;
62457;SDS011;48509;52.122;5.250;2024-01-11T02:51:08;40.1;;;26.3;;
62457;SDS011;48509;52.122;5.250;2024-01-11T02:54:20;43.6;;;26.4;;
62457;SDS011;48509;52.122;5.250;2024-01-11T02:55:56;43.6;;;26.4;;
62457;SDS011;48509;52.122;5.250;2024-01-11T02:57:32;38.9;;;25.3;;
62457;SDS011;48509;52.122;5.250;2024-01-11T02:59:12;40.21;;;26.0;;
62457;SDS011;48509;52.122;5.250;2024-01-11T03:02:24;39.71;;;25.7;;
62457;SDS011;48509;52.122;5.250;2024-01-11T03:04:00;38.1;;;25.4;;
62457;SDS011;48509;52.122;5.250;2024-01-11T03:05:35;34.6;;;24.5;;
62457;SDS011;48509;52.122;5.250;2024-01-11T03:08:48;37.71;;;24.2;;
62457;SDS011;48509;52.122;5.250;2024-01-11T03:10:24;42.6;;;26.7;;
62457;SDS011;48509;52.122;5.250;2024-01-11T03:12:00;43.1;;;25.9;;
62457;SDS011;48509;52.122;5.250;2024-01-11T03:15:12;39.21;;;25.4;;
62457;SDS011;48509;52.122;5.250;2024-01-11T03:16:49;48.0;;;26.8;;
62457;SDS011;48509;52.122;5.250;2024-01-11T03:18:25;42.0;;;25.2;;
62457;SDS011;48509;52.122;5.250;2024-01-11T03:20:01;44.6;;;26.1;;
62457;SDS011;48509;52.122;5.250;2024-01-11T03:23:18;41.2;;;24.9;;
62457;SDS011;48509;52.122;5.250;2024-01-11T03:24:54;40.9;;;25.4;;
62457;SDS011;48509;52.122;5.250;2024-01-11T03:26:30;39.9;;;25.5;;
62457;SDS011;48509;52.122;5.250;2024-01-11T03:29:42;38.71;;;25.8;;
62457;SDS011;48509;52.122;5.250;2024-01-11T03:31:18;43.9;;;28.0;;
62457;SDS011;48509;52.122;5.250;2024-01-11T03:32:54;47.0;;;29.1;;
62457;SDS011;48509;52.122;5.250;2024-01-11T03:36:07;48.0;;;29.9;;
62457;SDS011;48509;52.122;5.250;2024-01-11T03:37:44;49.0;;;29.0;;
62457;SDS011;48509;52.122;5.250;2024-01-11T03:39:20;49.1;;;28.1;;
62457;SDS011;48509;52.122;5.250;2024-01-11T03:40:56;41.3;;;28.5;;
62457;SDS011;48509;52.122;5.250;2024-01-11T03:44:08;45.6;;;28.4;;
62457;SDS011;48509;52.122;5.250;2024-01-11T03:45:44;40.6;;;27.6;;
62457;SDS011;48509;52.122;5.250;2024-01-11T03:47:20;44.2;;;30.1;;
62457;SDS011;48509;52.122;5.250;2024-01-11T03:50:32;38.5;;;26.9;;
62457;SDS011;48509;52.122;5.250;2024-01-11T03:52:08;44.5;;;28.1;;
62457;SDS011;48509;52.122;5.250;2024-01-11T03:53:45;48.4;;;30.3;;
62457;SDS011;48509;52.122;5.250;2024-01-11T03:56:57;43.1;;;27.3;;
62457;SDS011;48509;52.122;5.250;2024-01-11T03:58:33;42.5;;;28.0;;
62457;SDS011;48509;52.122;5.250;2024-01-11T04:00:11;46.0;;;29.4;;
62457;SDS011;48509;52.122;5.250;2024-01-11T04:03:24;45.4;;;29.5;;
62457;SDS011;48509;52.122;5.250;2024-01-11T04:05:00;52.3;;;30.9;;
62457;SDS011;48509;52.122;5.250;2024-01-11T04:06:36;47.3;;;29.7;;
62457;SDS011;48509;52.122;5.250;2024-01-11T04:08:12;45.9;;;29.7;;
62457;SDS011;48509;52.122;5.250;2024-01-11T04:11:27;41.9;;;28.9;;
62457;SDS011;48509;52.122;5.250;2024-01-11T04:13:03;54.3;;;30.9;;
62457;SDS011;48509;52.122;5.250;2024-01-11T04:14:39;52.9;;;32.6;;
62457;SDS011;48509;52.122;5.250;2024-01-11T04:17:51;49.4;;;32.71;;
62457;SDS011;48509;52.122;5.250;2024-01-11T04:19:27;51.8;;;34.31;;
62457;SDS011;48509;52.122;5.250;2024-01-11T04:21:03;50.3;;;35.31;;
62457;SDS011;48509;52.122;5.250;2024-01-11T04:24:15;59.6;;;38.6;;
62457;SDS011;48509;52.122;5.250;2024-01-11T04:25:51;61.9;;;37.5;;
62457;SDS011;48509;52.122;5.250;2024-01-11T04:27:27;54.1;;;36.21;;
62457;SDS011;48509;52.122;5.250;2024-01-11T04:29:04;59.9;;;39.1;;
62457;SDS011;48509;52.122;5.250;2024-01-11T04:32:17;60.7;;;39.0;;
62457;SDS011;48509;52.122;5.250;2024-01-11T04:33:53;55.3;;;36.9;;
62457;SDS011;48509;52.122;5.250;2024-01-11T04:35:29;59.5;;;39.4;;
62457;SDS011;48509;52.122;5.250;2024-01-11T04:38:42;57.1;;;37.71;;
62457;SDS011;48509;52.122;5.250;2024-01-11T04:40:18;63.3;;;39.4;;
62457;SDS011;48509;52.122;5.250;2024-01-11T04:41:54;60.4;;;38.6;;
62457;SDS011;48509;52.122;5.250;2024-01-11T04:45:07;63.9;;;38.4;;
62457;SDS011;48509;52.122;5.250;2024-01-11T04:46:43;55.1;;;38.21;;
62457;SDS011;48509;52.122;5.250;2024-01-11T04:48:19;57.2;;;38.31;;
62457;SDS011;48509;52.122;5.250;2024-01-11T04:49:56;57.4;;;39.0;;
62457;SDS011;48509;52.122;5.250;2024-01-11T04:53:08;58.7;;;39.0;;
62457;SDS011;48509;52.122;5.250;2024-01-11T04:54:44;53.9;;;38.4;;
62457;SDS011;48509;52.122;5.250;2024-01-11T04:56:20;52.9;;;38.21;;
62457;SDS011;48509;52.122;5.250;2024-01-11T04:59:32;55.6;;;38.0;;
62457;SDS011;48509;52.122;5.250;2024-01-11T05:01:11;56.4;;;39.1;;
62457;SDS011;48509;52.122;5.250;2024-01-11T05:02:47;59.2;;;38.5;;
62457;SDS011;48509;52.122;5.250;2024-01-11T05:05:59;61.6;;;39.1;;
62457;SDS011;48509;52.122;5.250;2024-01-11T05:07:36;61.7;;;39.81;;
62457;SDS011;48509;52.122;5.250;2024-01-11T05:09:12;57.0;;;39.21;;
62457;SDS011;48509;52.122;5.250;2024-01-11T05:12:24;55.7;;;39.1;;
62457;SDS011;48509;52.122;5.250;2024-01-11T05:13:59;60.8;;;40.1;;
62457;SDS011;48509;52.122;5.250;2024-01-11T05:15:35;64.7;;;44.0;;
62457;SDS011;48509;52.122;5.250;2024-01-11T05:17:11;60.1;;;38.81;;
62457;SDS011;48509;52.122;5.250;2024-01-11T05:20:25;56.7;;;40.0;;
62457;SDS011;48509;52.122;5.250;2024-01-11T05:22:01;58.3;;;39.71;;
62457;SDS011;48509;52.122;5.250;2024-01-11T05:23:39;58.3;;;39.71;;
62457;SDS011;48509;52.122;5.250;2024-01-11T05:26:52;62.5;;;41.1;;
62457;SDS011;48509;52.122;5.250;2024-01-11T05:28:28;62.1;;;41.4;;
62457;SDS011;48509;52.122;5.250;2024-01-11T05:30:04;63.9;;;41.7;;
62457;SDS011;48509;52.122;5.250;2024-01-11T05:33:17;60.5;;;41.7;;
62457;SDS011;48509;52.122;5.250;2024-01-11T05:34:53;62.3;;;41.1;;
62457;SDS011;48509;52.122;5.250;2024-01-11T05:36:29;60.8;;;41.1;;
62457;SDS011;48509;52.122;5.250;2024-01-11T05:38:05;61.1;;;40.9;;
62457;SDS011;48509;52.122;5.250;2024-01-11T05:41:17;63.0;;;43.7;;
62457;SDS011;48509;52.122;5.250;2024-01-11T05:42:53;68.8;;;46.7;;
62457;SDS011;48509;52.122;5.250;2024-01-11T05:44:29;74.0;;;48.7;;
62457;SDS011;48509;52.122;5.250;2024-01-11T05:47:44;73.7;;;50.2;;
62457;SDS011;48509;52.122;5.250;2024-01-11T05:49:20;66.3;;;46.4;;
62457;SDS011;48509;52.122;5.250;2024-01-11T05:50:56;67.2;;;44.2;;
62457;SDS011;48509;52.122;5.250;2024-01-11T05:54:08;70.91;;;47.9;;
62457;SDS011;48509;52.122;5.250;2024-01-11T05:55:44;71.91;;;47.4;;
62457;SDS011;48509;52.122;5.250;2024-01-11T05:57:20;68.1;;;47.5;;
62457;SDS011;48509;52.122;5.250;2024-01-11T06:00:32;67.0;;;46.8;;
62457;SDS011;48509;52.122;5.250;2024-01-11T06:02:08;72.91;;;47.3;;
62457;SDS011;48509;52.122;5.250;2024-01-11T06:03:45;67.2;;;43.5;;
62457;SDS011;48509;52.122;5.250;2024-01-11T06:05:21;66.41;;;45.6;;
62457;SDS011;48509;52.122;5.250;2024-01-11T06:08:33;68.5;;;47.3;;
62457;SDS011;48509;52.122;5.250;2024-01-11T06:10:09;70.7;;;46.2;;
62457;SDS011;48509;52.122;5.250;2024-01-11T06:11:45;74.5;;;49.5;;
62457;SDS011;48509;52.122;5.250;2024-01-11T06:14:58;72.41;;;47.4;;
62457;SDS011;48509;52.122;5.250;2024-01-11T06:16:34;64.91;;;44.1;;
62457;SDS011;48509;52.122;5.250;2024-01-11T06:18:10;70.7;;;47.0;;
62457;SDS011;48509;52.122;5.250;2024-01-11T06:21:22;79.0;;;52.5;;
62457;SDS011;48509;52.122;5.250;2024-01-11T06:22:58;76.0;;;47.0;;
62457;SDS011;48509;52.122;5.250;2024-01-11T06:24:34;72.2;;;48.2;;
62457;SDS011;48509;52.122;5.250;2024-01-11T06:26:10;69.0;;;44.6;;
62457;SDS011;48509;52.122;5.250;2024-01-11T06:29:22;64.0;;;46.8;;
62457;SDS011;48509;52.122;5.250;2024-01-11T06:30:59;69.2;;;46.0;;
62457;SDS011;48509;52.122;5.250;2024-01-11T06:32:35;63.8;;;44.1;;
62457;SDS011;48509;52.122;5.250;2024-01-11T06:35:47;63.8;;;44.1;;
62457;SDS011;48509;52.122;5.250;2024-01-11T06:37:23;74.3;;;49.1;;
62457;SDS011;48509;52.122;5.250;2024-01-11T06:38:59;76.7;;;49.6;;
62457;SDS011;48509;52.122;5.250;2024-01-11T06:42:11;71.91;;;47.8;;
62457;SDS011;48509;52.122;5.250;2024-01-11T06:43:47;66.91;;;45.1;;
62457;SDS011;48509;52.122;5.250;2024-01-11T06:45:23;68.5;;;45.7;;
62457;SDS011;48509;52.122;5.250;2024-01-11T06:48:36;72.2;;;45.7;;
62457;SDS011;48509;52.122;5.250;2024-01-11T06:50:12;66.1;;;44.8;;
62457;SDS011;48509;52.122;5.250;2024-01-11T06:51:48;70.2;;;45.8;;
62457;SDS011;48509;52.122;5.250;2024-01-11T06:53:24;64.0;;;45.0;;
62457;SDS011;48509;52.122;5.250;2024-01-11T06:56:36;67.3;;;46.9;;
62457;SDS011;48509;52.122;5.250;2024-01-11T06:58:12;70.0;;;47.8;;
62457;SDS011;48509;52.122;5.250;2024-01-11T06:59:48;73.5;;;51.3;;
62457;SDS011;48509;52.122;5.250;2024-01-11T07:03:00;69.2;;;47.2;;
62457;SDS011;48509;52.122;5.250;2024-01-11T07:04:36;66.0;;;45.5;;
62457;SDS011;48509;52.122;5.250;2024-01-11T07:06:13;69.8;;;47.6;;
62457;SDS011;48509;52.122;5.250;2024-01-11T07:09:25;73.8;;;48.5;;
62457;SDS011;48509;52.122;5.250;2024-01-11T07:11:01;75.2;;;48.8;;
62457;SDS011;48509;52.122;5.250;2024-01-11T07:12:38;66.91;;;45.5;;
62457;SDS011;48509;52.122;5.250;2024-01-11T07:15:51;70.3;;;49.0;;
62457;SDS011;48509;52.122;5.250;2024-01-11T07:17:30;73.11;;;49.8;;
62457;SDS011;48509;52.122;5.250;2024-01-11T07:19:06;71.61;;;51.3;;
62457;SDS011;48509;52.122;5.250;2024-01-11T07:20:42;68.61;;;47.0;;
62457;SDS011;48509;52.122;5.250;2024-01-11T07:23:55;78.3;;;50.4;;
62457;SDS011;48509;52.122;5.250;2024-01-11T07:25:31;81.3;;;53.1;;
62457;SDS011;48509;52.122;5.250;2024-01-11T07:27:07;70.11;;;46.8;;
62457;SDS011;48509;52.122;5.250;2024-01-11T07:30:19;78.7;;;49.7;;
62457;SDS011;48509;52.122;5.250;2024-01-11T07:31:55;71.7;;;46.9;;
62457;SDS011;48509;52.122;5.250;2024-01-11T07:33:31;72.5;;;45.8;;
62457;SDS011;48509;52.122;5.250;2024-01-11T07:36:44;73.91;;;48.5;;
62457;SDS011;48509;52.122;5.250;2024-01-11T07:38:20;72.0;;;50.0;;
62457;SDS011;48509;52.122;5.250;2024-01-11T07:39:56;79.5;;;53.6;;
62457;SDS011;48509;52.122;5.250;2024-01-11T07:41:32;77.41;;;48.2;;
62457;SDS011;48509;52.122;5.250;2024-01-11T07:44:45;74.2;;;46.8;;
62457;SDS011;48509;52.122;5.250;2024-01-11T07:46:21;74.61;;;48.0;;
62457;SDS011;48509;52.122;5.250;2024-01-11T07:47:57;79.0;;;50.7;;
62457;SDS011;48509;52.122;5.250;2024-01-11T07:51:09;75.5;;;49.5;;
62457;SDS011;48509;52.122;5.250;2024-01-11T07:52:45;74.8;;;49.3;;
62457;SDS011;48509;52.122;5.250;2024-01-11T07:54:21;76.8;;;52.4;;
62457;SDS011;48509;52.122;5.250;2024-01-11T07:57:33;77.7;;;51.4;;
62457;SDS011;48509;52.122;5.250;2024-01-11T07:59:10;78.91;;;52.0;;
62457;SDS011;48509;52.122;5.250;2024-01-11T08:00:47;85.1;;;53.7;;
62457;SDS011;48509;52.122;5.250;2024-01-11T08:04:03;77.7;;;51.7;;
62457;SDS011;48509;52.122;5.250;2024-01-11T08:05:40;79.8;;;52.4;;
62457;SDS011;48509;52.122;5.250;2024-01-11T08:07:16;76.0;;;49.5;;
62457;SDS011;48509;52.122;5.250;2024-01-11T08:08:52;75.0;;;50.6;;
62457;SDS011;48509;52.122;5.250;2024-01-11T08:12:04;72.0;;;47.5;;
62457;SDS011;48509;52.122;5.250;2024-01-11T08:13:41;76.3;;;50.7;;
62457;SDS011;48509;52.122;5.250;2024-01-11T08:15:17;80.8;;;50.9;;
62457;SDS011;48509;52.122;5.250;2024-01-11T08:18:30;76.5;;;50.9;;
62457;SDS011;48509;52.122;5.250;2024-01-11T08:20:06;77.11;;;50.2;;
62457;SDS011;48509;52.122;5.250;2024-01-11T08:21:43;74.7;;;49.4;;
62457;SDS011;48509;52.122;5.250;2024-01-11T08:24:55;73.7;;;49.9;;
62457;SDS011;48509;52.122;5.250;2024-01-11T08:26:31;72.8;;;49.0;;
62457;SDS011;48509;52.122;5.250;2024-01-11T08:28:07;72.7;;;48.1;;
62457;SDS011;48509;52.122;5.250;2024-01-11T08:29:43;74.41;;;50.7;;
62457;SDS011;48509;52.122;5.250;2024-01-11T08:32:55;73.41;;;47.2;;
62457;SDS011;48509;52.122;5.250;2024-01-11T08:34:31;67.91;;;45.9;;
62457;SDS011;48509;52.122;5.250;2024-01-11T08:36:07;74.2;;;48.2;;
62457;SDS011;48509;52.122;5.250;2024-01-11T08:39:20;69.5;;;46.8;;
62457;SDS011;48509;52.122;5.250;2024-01-11T08:40:56;74.41;;;49.7;;
62457;SDS011;48509;52.122;5.250;2024-01-11T08:42:32;67.2;;;46.1;;
62457;SDS011;48509;52.122;5.250;2024-01-11T08:45:45;69.11;;;47.0;;
62457;SDS011;48509;52.122;5.250;2024-01-11T08:47:24;73.11;;;47.8;;
62457;SDS011;48509;52.122;5.250;2024-01-11T08:49:00;72.3;;;48.4;;
62457;SDS011;48509;52.122;5.250;2024-01-11T08:50:37;74.8;;;49.5;;
62457;SDS011;48509;52.122;5.250;2024-01-11T08:53:49;68.1;;;48.7;;
62457;SDS011;48509;52.122;5.250;2024-01-11T08:55:26;74.3;;;50.2;;
62457;SDS011;48509;52.122;5.250;2024-01-11T08:57:02;73.61;;;50.7;;
62457;SDS011;48509;52.122;5.250;2024-01-11T09:00:15;71.91;;;46.3;;
62457;SDS011;48509;52.122;5.250;2024-01-11T09:01:51;74.0;;;48.4;;
62457;SDS011;48509;52.122;5.250;2024-01-11T09:03:27;74.0;;;48.4;;
62457;SDS011;48509;52.122;5.250;2024-01-11T09:06:40;74.11;;;47.6;;
62457;SDS011;48509;52.122;5.250;2024-01-11T09:08:16;77.2;;;50.0;;
62457;SDS011;48509;52.122;5.250;2024-01-11T09:09:52;69.8;;;48.1;;
62457;SDS011;48509;52.122;5.250;2024-01-11T09:11:28;75.61;;;48.4;;
62457;SDS011;48509;52.122;5.250;2024-01-11T09:14:41;72.91;;;48.3;;
62457;SDS011;48509;52.122;5.250;2024-01-11T09:16:17;73.8;;;48.1;;
62457;SDS011;48509;52.122;5.250;2024-01-11T09:17:53;69.2;;;45.8;;
62457;SDS011;48509;52.122;5.250;2024-01-11T09:21:05;73.3;;;49.8;;
62457;SDS011;48509;52.122;5.250;2024-01-11T09:22:41;68.61;;;47.7;;
62457;SDS011;48509;52.122;5.250;2024-01-11T09:24:17;81.2;;;50.3;;
62457;SDS011;48509;52.122;5.250;2024-01-11T09:27:29;77.7;;;50.7;;
62457;SDS011;48509;52.122;5.250;2024-01-11T09:29:05;73.91;;;50.1;;
62457;SDS011;48509;52.122;5.250;2024-01-11T09:30:41;72.41;;;48.3;;
62457;SDS011;48509;52.122;5.250;2024-01-11T09:33:54;71.61;;;46.2;;
62457;SDS011;48509;52.122;5.250;2024-01-11T09:35:30;73.2;;;47.7;;
62457;SDS011;48509;52.122;5.250;2024-01-11T09:37:06;77.61;;;46.6;;
62457;SDS011;48509;52.122;5.250;2024-01-11T09:38:42;76.41;;;47.3;;
62457;SDS011;48509;52.122;5.250;2024-01-11T09:41:57;62.7;;;43.1;;
62457;SDS011;48509;52.122;5.250;2024-01-11T09:43:34;68.0;;;44.4;;
62457;SDS011;48509;52.122;5.250;2024-01-11T09:45:12;61.8;;;42.2;;
62457;SDS011;48509;52.122;5.250;2024-01-11T09:48:25;64.91;;;40.81;;
62457;SDS011;48509;52.122;5.250;2024-01-11T09:50:03;66.1;;;42.8;;
62457;SDS011;48509;52.122;5.250;2024-01-11T09:51:40;70.0;;;45.5;;
62457;SDS011;48509;52.122;5.250;2024-01-11T09:53:19;67.1;;;45.5;;
62457;SDS011;48509;52.122;5.250;2024-01-11T09:56:34;63.9;;;41.7;;
62457;SDS011;48509;52.122;5.250;2024-01-11T09:58:10;64.5;;;43.6;;
62457;SDS011;48509;52.122;5.250;2024-01-11T09:59:47;66.6;;;44.6;;
62457;SDS011;48509;52.122;5.250;2024-01-11T10:03:03;70.11;;;47.4;;
62457;SDS011;48509;52.122;5.250;2024-01-11T10:04:41;65.8;;;41.8;;
62457;SDS011;48509;52.122;5.250;2024-01-11T10:06:17;66.8;;;44.6;;
62457;SDS011;48509;52.122;5.250;2024-01-11T10:09:30;67.0;;;43.8;;
62457;SDS011;48509;52.122;5.250;2024-01-11T10:11:07;67.0;;;43.8;;
62457;SDS011;48509;52.122;5.250;2024-01-11T10:12:43;63.2;;;42.1;;
62457;SDS011;48509;52.122;5.250;2024-01-11T10:14:19;64.7;;;42.1;;
62457;SDS011;48509;52.122;5.250;2024-01-11T10:17:44;61.4;;;38.81;;
62457;SDS011;48509;52.122;5.250;2024-01-11T10:19:21;63.9;;;40.71;;
62457;SDS011;48509;52.122;5.250;2024-01-11T10:20:57;61.9;;;38.21;;
62457;SDS011;48509;52.122;5.250;2024-01-11T10:24:09;56.6;;;37.31;;
62457;SDS011;48509;52.122;5.250;2024-01-11T10:25:45;61.7;;;38.21;;
62457;SDS011;48509;52.122;5.250;2024-01-11T10:27:23;54.4;;;36.31;;
62457;SDS011;48509;52.122;5.250;2024-01-11T10:29:05;60.4;;;39.1;;
62457;SDS011;48509;52.122;5.250;2024-01-11T10:32:21;61.5;;;40.21;;
62457;SDS011;48509;52.122;5.250;2024-01-11T10:33:57;54.6;;;36.71;;
62457;SDS011;48509;52.122;5.250;2024-01-11T10:35:33;63.4;;;37.6;;
62457;SDS011;48509;52.122;5.250;2024-01-11T10:38:49;61.4;;;37.0;;
62457;SDS011;48509;52.122;5.250;2024-01-11T10:40:28;63.8;;;38.1;;
62457;SDS011;48509;52.122;5.250;2024-01-11T10:42:05;58.3;;;38.21;;
62457;SDS011;48509;52.122;5.250;2024-01-11T10:43:41;60.2;;;36.71;;
62457;SDS011;48509;52.122;5.250;2024-01-11T10:46:56;56.9;;;36.4;;
62457;SDS011;48509;52.122;5.250;2024-01-11T10:48:32;60.3;;;38.0;;
62457;SDS011;48509;52.122;5.250;2024-01-11T10:50:13;61.4;;;39.31;;
62457;SDS011;48509;52.122;5.250;2024-01-11T10:53:36;68.41;;;40.4;;
62457;SDS011;48509;52.122;5.250;2024-01-11T10:55:17;57.8;;;39.0;;
62457;SDS011;48509;52.122;5.250;2024-01-11T10:56:54;56.4;;;36.71;;
62457;SDS011;48509;52.122;5.250;2024-01-11T10:58:34;65.91;;;39.1;;
62457;SDS011;48509;52.122;5.250;2024-01-11T11:03:25;60.6;;;39.4;;
62457;SDS011;48509;52.122;5.250;2024-01-11T11:05:02;61.3;;;38.6;;
62457;SDS011;48509;52.122;5.250;2024-01-11T11:06:40;57.1;;;38.4;;
62457;SDS011;48509;52.122;5.250;2024-01-11T11:09:55;57.9;;;38.31;;
62457;SDS011;48509;52.122;5.250;2024-01-11T11:11:33;60.6;;;39.0;;
62457;SDS011;48509;52.122;5.250;2024-01-11T11:13:13;57.3;;;35.0;;
62457;SDS011;48509;52.122;5.250;2024-01-11T11:16:28;62.0;;;39.0;;
62457;SDS011;48509;52.122;5.250;2024-01-11T11:18:04;56.6;;;36.6;;
62457;SDS011;48509;52.122;5.250;2024-01-11T11:19:40;51.0;;;35.6;;
62457;SDS011;48509;52.122;5.250;2024-01-11T11:21:18;56.5;;;35.1;;
62457;SDS011;48509;52.122;5.250;2024-01-11T11:26:19;55.7;;;35.6;;
62457;SDS011;48509;52.122;5.250;2024-01-11T11:27:55;56.4;;;35.5;;
62457;SDS011;48509;52.122;5.250;2024-01-11T11:29:31;55.2;;;35.5;;
62457;SDS011;48509;52.122;5.250;2024-01-11T11:32:45;52.1;;;34.81;;
62457;SDS011;48509;52.122;5.250;2024-01-11T11:34:31;54.3;;;33.5;;
62457;SDS011;48509;52.122;5.250;2024-01-11T11:36:16;55.1;;;35.6;;
62457;SDS011;48509;52.122;5.250;2024-01-11T11:39:32;64.0;;;37.1;;
62457;SDS011;48509;52.122;5.250;2024-01-11T11:41:08;58.9;;;37.0;;
62457;SDS011;48509;52.122;5.250;2024-01-11T11:42:44;52.8;;;35.4;;
62457;SDS011;48509;52.122;5.250;2024-01-11T11:44:21;54.2;;;35.1;;
62457;SDS011;48509;52.122;5.250;2024-01-11T11:47:33;53.9;;;34.9;;
62457;SDS011;48509;52.122;5.250;2024-01-11T11:49:11;51.2;;;35.5;;
62457;SDS011;48509;52.122;5.250;2024-01-11T11:50:47;56.3;;;34.5;;
62457;SDS011;48509;52.122;5.250;2024-01-11T11:54:00;54.9;;;37.0;;
62457;SDS011;48509;52.122;5.250;2024-01-11T11:55:37;50.8;;;33.4;;
62457;SDS011;48509;52.122;5.250;2024-01-11T11:57:16;58.0;;;37.0;;
62457;SDS011;48509;52.122;5.250;2024-01-11T11:58:53;49.9;;;32.6;;
62457;SDS011;48509;52.122;5.250;2024-01-11T12:02:06;55.6;;;35.21;;
62457;SDS011;48509;52.122;5.250;2024-01-11T12:03:52;51.3;;;33.0;;
62457;SDS011;48509;52.122;5.250;2024-01-11T12:05:28;48.4;;;31.9;;
62457;SDS011;48509;52.122;5.250;2024-01-11T12:08:41;54.4;;;34.5;;
62457;SDS011;48509;52.122;5.250;2024-01-11T12:10:20;51.2;;;33.6;;
62457;SDS011;48509;52.122;5.250;2024-01-11T12:11:56;55.1;;;33.21;;
62457;SDS011;48509;52.122;5.250;2024-01-11T12:13:33;54.3;;;35.0;;
62457;SDS011;48509;52.122;5.250;2024-01-11T12:16:45;52.5;;;33.71;;
62457;SDS011;48509;52.122;5.250;2024-01-11T12:18:21;50.7;;;31.1;;
62457;SDS011;48509;52.122;5.250;2024-01-11T12:19:57;49.1;;;32.21;;
62457;SDS011;48509;52.122;5.250;2024-01-11T12:23:12;49.9;;;31.6;;
62457;SDS011;48509;52.122;5.250;2024-01-11T12:24:48;47.8;;;31.0;;
62457;SDS011;48509;52.122;5.250;2024-01-11T12:26:24;48.3;;;31.3;;
62457;SDS011;48509;52.122;5.250;2024-01-11T12:29:39;44.5;;;28.3;;
62457;SDS011;48509;52.122;5.250;2024-01-11T12:31:15;47.1;;;30.7;;
62457;SDS011;48509;52.122;5.250;2024-01-11T12:32:52;47.5;;;31.3;;
62457;SDS011;48509;52.122;5.250;2024-01-11T12:34:29;47.3;;;30.4;;
62457;SDS011;48509;52.122;5.250;2024-01-11T12:37:52;48.6;;;31.2;;